Time;durP1;ratioP1;P1;durP2;ratioP2;P2;SDS_P1;SDS_P2;PMS_P1;PMS_P2;Temp;Humidity;BMP_temperature;BMP_pressure;BME280_temperature;BME280_humidity;BME280_pressure;Samples;Min_cycle;Max_cycle;Signal;HPM_P1;HPM_P2
2022/04/29 00:01:32;;;;;;;14.48;6.45;;;;;;;0.77;100.00;100196.81;5131978;28;20047;-47
2022/04/29 00:03:59;;;;;;;13.98;6.18;;;;;;;0.79;100.00;100211.66;5132012;28;20170;-49
2022/04/29 00:06:26;;;;;;;16.73;6.75;;;;;;;0.77;100.00;100213.00;5131784;28;20418;-50
2022/04/29 00:08:52;;;;;;;22.70;8.00;;;;;;;0.79;100.00;100218.94;5131856;28;20051;-49
2022/04/29 00:11:19;;;;;;;24.02;7.00;;;;;;;0.74;100.00;100222.47;5131774;28;20051;-48
2022/04/29 00:13:45;;;;;;;16.55;7.13;;;;;;;0.68;100.00;100228.97;5131796;28;20422;-48
2022/04/29 00:16:11;;;;;;;15.82;7.20;;;;;;;0.65;100.00;100245.69;5132022;28;20047;-48
2022/04/29 00:18:37;;;;;;;22.42;7.72;;;;;;;0.64;100.00;100258.38;5131693;28;20055;-50
2022/04/29 00:21:05;;;;;;;21.98;7.18;;;;;;;0.66;100.00;100261.59;5132028;28;20047;-47
2022/04/29 00:23:31;;;;;;;12.02;5.90;;;;;;;0.64;100.00;100266.47;5132251;28;20051;-47
2022/04/29 00:25:57;;;;;;;21.63;6.82;;;;;;;0.63;100.00;100274.84;5132107;28;20043;-50
2022/04/29 00:28:24;;;;;;;18.85;6.43;;;;;;;0.59;100.00;100262.97;5131595;28;20051;-48
2022/04/29 00:30:50;;;;;;;16.73;6.28;;;;;;;0.59;100.00;100268.38;5131986;28;20066;-47
2022/04/29 00:33:17;;;;;;;21.15;6.88;;;;;;;0.58;100.00;100272.16;5131654;28;20047;-50
2022/04/29 00:35:43;;;;;;;16.58;6.53;;;;;;;0.54;100.00;100276.47;5131523;28;20096;-49
2022/04/29 00:38:15;;;;;;;16.20;6.07;;;;;;;0.53;100.00;100281.03;5131366;28;20140;-49
2022/04/29 00:40:41;;;;;;;11.65;6.07;;;;;;;0.46;100.00;100270.53;5131366;28;20051;-48
2022/04/29 00:43:07;;;;;;;12.85;5.35;;;;;;;0.44;100.00;100280.78;5131659;28;20444;-47
2022/04/29 00:45:34;;;;;;;20.00;7.43;;;;;;;0.44;100.00;100286.19;5131456;27;20047;-47
2022/04/29 00:48:00;;;;;;;16.13;6.18;;;;;;;0.45;100.00;100295.91;5131804;28;20380;-51
2022/04/29 00:50:28;;;;;;;18.92;6.63;;;;;;;0.44;100.00;100307.78;5131500;28;20457;-49
2022/04/29 00:52:56;;;;;;;12.55;6.15;;;;;;;0.40;100.00;100316.66;5131638;28;20047;-47
2022/04/29 00:55:23;;;;;;;16.98;6.15;;;;;;;0.37;100.00;100333.41;5131136;28;20058;-48
2022/04/29 00:57:52;;;;;;;13.02;6.18;;;;;;;0.35;100.00;100355.25;5131264;28;20475;-47
2022/04/29 01:00:20;;;;;;;15.38;6.88;;;;;;;0.33;100.00;100367.38;5130965;28;20051;-50
2022/04/29 01:02:48;;;;;;;20.20;6.50;;;;;;;0.32;100.00;100377.34;5131220;28;20047;-47
2022/04/29 01:05:17;;;;;;;23.77;7.30;;;;;;;0.30;100.00;100379.53;5131029;28;20055;-51
2022/04/29 01:07:45;;;;;;;16.45;6.32;;;;;;;0.31;100.00;100399.22;5130963;28;20055;-49
2022/04/29 01:10:13;;;;;;;15.38;6.60;;;;;;;0.31;100.00;100401.91;5131218;28;20485;-48
2022/04/29 01:12:43;;;;;;;10.80;5.53;;;;;;;0.31;100.00;100408.09;5130849;28;20051;-47
2022/04/29 01:15:13;;;;;;;15.82;7.03;;;;;;;0.33;100.00;100403.25;5131157;28;20047;-47
2022/04/29 01:17:40;;;;;;;16.67;8.15;;;;;;;0.30;100.00;100406.50;5130822;28;20049;-47
2022/04/29 01:20:09;;;;;;;17.20;7.57;;;;;;;0.30;100.00;100411.06;5130828;28;20590;-47
2022/04/29 01:22:36;;;;;;;21.10;7.25;;;;;;;0.31;100.00;100423.50;5130878;28;20456;-47
2022/04/29 01:25:03;;;;;;;22.30;7.72;;;;;;;0.32;100.00;100425.09;5130749;28;20043;-47
2022/04/29 01:27:30;;;;;;;21.58;8.57;;;;;;;0.31;100.00;100432.38;5130704;28;20166;-47
2022/04/29 01:30:01;;;;;;;25.50;9.45;;;;;;;0.29;100.00;100449.91;5130661;28;20047;-47
2022/04/29 01:32:27;;;;;;;23.55;8.40;;;;;;;0.25;100.00;100446.94;5130918;28;20504;-46
2022/04/29 01:34:53;;;;;;;18.02;7.25;;;;;;;0.30;100.00;100467.69;5131119;28;20055;-47
2022/04/29 01:37:19;;;;;;;15.00;5.95;;;;;;;0.30;100.00;100471.22;5130887;28;20047;-46
2022/04/29 01:39:46;;;;;;;19.35;8.35;;;;;;;0.30;100.00;100478.50;5130476;28;20047;-48
2022/04/29 01:42:12;;;;;;;19.67;8.55;;;;;;;0.33;100.00;100480.66;5130779;28;20058;-47
2022/04/29 01:44:39;;;;;;;23.80;8.27;;;;;;;0.33;100.00;100494.97;5130447;28;20054;-46
2022/04/29 01:47:05;;;;;;;19.95;9.30;;;;;;;0.31;100.00;100494.44;5130737;28;20047;-47
2022/04/29 01:49:31;;;;;;;19.00;7.93;;;;;;;0.34;100.00;100495.78;5130546;28;20043;-47
2022/04/29 01:51:59;;;;;;;18.55;8.07;;;;;;;0.29;100.00;100487.66;5130231;28;20054;-46
2022/04/29 01:54:25;;;;;;;21.08;8.35;;;;;;;0.26;100.00;100491.69;5130460;28;20050;-48
2022/04/29 01:56:53;;;;;;;23.38;8.57;;;;;;;0.24;100.00;100480.38;5132148;27;20054;-47
2022/04/29 01:59:19;;;;;;;24.35;8.73;;;;;;;0.25;100.00;100489.28;5133988;28;20570;-47
2022/04/29 02:01:46;;;;;;;32.85;13.27;;;;;;;0.24;100.00;100488.47;5133811;28;20055;-47
2022/04/29 02:04:12;;;;;;;57.75;24.85;;;;;;;0.24;100.00;100496.56;5133864;28;20047;-48
2022/04/29 02:06:39;;;;;;;49.80;22.55;;;;;;;0.23;100.00;100497.63;5133861;28;20072;-46
2022/04/29 02:09:05;;;;;;;40.47;19.35;;;;;;;0.21;100.00;100491.69;5134159;28;20054;-48
2022/04/29 02:11:31;;;;;;;35.92;14.80;;;;;;;0.16;100.00;100486.25;5133852;28;20059;-47
2022/04/29 02:13:58;;;;;;;27.45;14.00;;;;;;;0.18;100.00;100484.13;5133934;28;20054;-49
2022/04/29 02:16:25;;;;;;;28.83;12.73;;;;;;;0.18;100.00;100490.31;5133598;28;20047;-49
2022/04/29 02:18:51;;;;;;;25.00;11.85;;;;;;;0.14;100.00;100496.53;5133732;28;20051;-47
2022/04/29 02:21:17;;;;;;;24.77;11.00;;;;;;;0.13;100.00;100497.56;5133657;28;20043;-49
2022/04/29 02:23:43;;;;;;;18.05;7.30;;;;;;;0.14;100.00;100497.31;5133611;28;20050;-47
2022/04/29 02:26:09;;;;;;;14.02;6.50;;;;;;;0.16;100.00;100500.56;5133676;28;20043;-48
2022/04/29 02:28:35;;;;;;;17.92;6.60;;;;;;;0.18;100.00;100500.31;5133712;28;20133;-48
2022/04/29 02:31:03;;;;;;;17.58;6.32;;;;;;;0.16;100.00;100492.47;5133601;28;20051;-48
2022/04/29 02:33:29;;;;;;;23.90;7.72;;;;;;;0.18;100.00;100500.31;5133924;28;20409;-49
2022/04/29 02:35:56;;;;;;;17.48;6.50;;;;;;;0.15;100.00;100488.16;5133722;28;20049;-48
2022/04/29 02:38:22;;;;;;;21.52;6.97;;;;;;;0.16;100.00;100491.66;5133116;28;20061;-47
2022/04/29 02:40:50;;;;;;;20.92;8.07;;;;;;;0.18;100.00;100497.59;5133791;28;20047;-50
2022/04/29 02:43:16;;;;;;;23.80;8.35;;;;;;;0.20;100.00;100493.59;5133150;28;20051;-48
2022/04/29 02:45:44;;;;;;;17.02;7.38;;;;;;;0.25;100.00;100500.06;5133423;28;20544;-51
2022/04/29 02:48:11;;;;;;;15.43;7.20;;;;;;;0.24;100.00;100499.25;5133290;28;20058;-51
2022/04/29 02:50:37;;;;;;;17.80;7.38;;;;;;;0.26;100.00;100502.47;5133170;28;20506;-48
2022/04/29 02:53:03;;;;;;;26.95;7.25;;;;;;;0.25;100.00;100502.75;5133247;28;20051;-47
2022/04/29 02:55:30;;;;;;;19.13;7.97;;;;;;;0.31;100.00;100502.53;5133335;28;20051;-47
2022/04/29 02:57:56;;;;;;;17.55;7.20;;;;;;;0.35;100.00;100508.19;5133024;28;20043;-48
2022/04/29 03:00:22;;;;;;;30.75;8.93;;;;;;;0.38;100.00;100507.66;5132864;28;20475;-48
2022/04/29 03:02:48;;;;;;;22.77;8.88;;;;;;;0.41;100.00;100504.44;5133421;28;20047;-47
2022/04/29 03:05:15;;;;;;;20.30;8.68;;;;;;;0.43;100.00;100499.56;5132954;28;20043;-48
2022/04/29 03:07:41;;;;;;;16.75;7.72;;;;;;;0.48;100.00;100496.91;5131892;27;20047;-48
2022/04/29 03:10:08;;;;;;;19.05;7.13;;;;;;;0.48;100.00;100491.50;5132822;28;20550;-47
2022/04/29 03:12:34;;;;;;;18.48;8.35;;;;;;;0.51;100.00;100500.97;5133233;28;20518;-47
2022/04/29 03:20:26;;;;;;;19.15;7.28;;;;;;;2.34;100.00;100464.88;5132879;28;20068;-48
2022/04/29 03:22:52;;;;;;;21.25;9.07;;;;;;;3.08;100.00;100370.13;5132792;28;20047;-47
2022/04/29 03:25:19;;;;;;;28.25;7.95;;;;;;;3.72;100.00;100155.44;5132562;28;20054;-47
2022/04/29 03:27:45;;;;;;;22.20;9.68;;;;;;;4.30;100.00;99879.22;5132617;28;20065;-48
2022/04/29 03:30:13;;;;;;;29.70;10.32;;;;;;;4.77;100.00;99579.09;5132463;28;20142;-47
2022/04/29 03:32:39;;;;;;;27.63;11.18;;;;;;;5.19;100.00;99362.00;5132311;28;20051;-48
2022/04/29 03:35:05;;;;;;;27.67;11.00;;;;;;;5.60;100.00;99243.66;5132806;28;20058;-48
2022/04/29 03:37:33;;;;;;;31.88;11.05;;;;;;;6.01;100.00;99160.47;5132594;28;20058;-47
2022/04/29 03:39:59;;;;;;;30.33;11.15;;;;;;;6.34;100.00;99133.25;5132523;28;20098;-47
2022/04/29 03:42:25;;;;;;;39.65;13.88;;;;;;;6.74;100.00;99130.69;5132378;28;20059;-49
2022/04/29 03:44:51;;;;;;;37.17;14.55;;;;;;;7.07;100.00;99146.13;5132243;28;20043;-47
2022/04/29 03:47:17;;;;;;;41.85;15.80;;;;;;;7.47;100.00;99165.28;5132336;28;20058;-48
2022/04/29 03:49:43;;;;;;;42.60;17.73;;;;;;;7.83;100.00;99192.81;5132348;28;20471;-49
2022/04/29 03:52:10;;;;;;;36.60;15.13;;;;;;;8.21;100.00;99206.00;5132439;28;20055;-48
2022/04/29 03:54:36;;;;;;;49.35;18.75;;;;;;;8.57;100.00;99240.59;5132107;28;20055;-51
2022/04/29 03:57:03;;;;;;;46.63;19.38;;;;;;;8.94;100.00;99278.66;5132417;28;20059;-48
2022/04/29 03:59:29;;;;;;;47.17;19.77;;;;;;;8.84;100.00;99298.31;5131946;28;20054;-49
2022/04/29 04:01:55;;;;;;;53.03;21.52;;;;;;;8.41;100.00;99306.09;5132494;28;20088;-50
2022/04/29 04:04:21;;;;;;;40.08;17.52;;;;;;;8.32;100.00;99278.09;5131989;28;20415;-48
2022/04/29 04:06:51;;;;;;;51.40;21.10;;;;;;;9.02;100.00;99283.16;5132293;28;20054;-52
2022/04/29 04:09:18;;;;;;;54.63;21.27;;;;;;;9.60;100.00;99316.28;5131879;28;20068;-48
2022/04/29 04:11:45;;;;;;;65.03;20.85;;;;;;;9.53;100.00;99353.59;5132018;28;20528;-50
2022/04/29 04:14:11;;;;;;;58.03;22.55;;;;;;;8.68;100.00;99339.25;5131914;28;20043;-49
2022/04/29 04:16:37;;;;;;;62.00;20.58;;;;;;;8.11;100.00;99304.81;5131923;28;20051;-50
2022/04/29 04:19:04;;;;;;;53.50;21.35;;;;;;;7.66;100.00;99262.88;5131503;27;20464;-50
2022/04/29 04:21:31;;;;;;;59.75;21.98;;;;;;;7.30;100.00;99209.97;5131878;28;20048;-49
2022/04/29 04:23:57;;;;;;;59.33;21.80;;;;;;;7.11;100.00;99184.41;5131932;28;20047;-49
2022/04/29 04:26:23;;;;;;;59.03;23.75;;;;;;;6.96;100.00;99167.59;5131735;28;20399;-49
2022/04/29 04:28:50;;;;;;;47.03;19.60;;;;;;;6.93;100.00;99153.84;5131866;28;20481;-47
2022/04/29 04:31:16;;;;;;;49.40;19.48;;;;;;;7.04;100.00;99147.59;5131293;28;20051;-52
2022/04/29 04:33:43;;;;;;;56.03;22.52;;;;;;;7.13;100.00;99139.31;5131577;28;20051;-49
2022/04/29 04:36:09;;;;;;;70.60;26.35;;;;;;;7.25;100.00;99139.28;5131512;28;20047;-49
2022/04/29 04:38:37;;;;;;;65.30;24.58;;;;;;;7.39;100.00;99135.41;5131468;28;20051;-49
2022/04/29 04:41:03;;;;;;;60.92;23.30;;;;;;;7.54;100.00;99134.69;5131310;28;20055;-53
2022/04/29 04:43:30;;;;;;;60.35;22.15;;;;;;;7.67;100.00;99141.72;5131324;28;20455;-50
2022/04/29 04:45:56;;;;;;;59.20;24.08;;;;;;;7.94;100.00;99142.06;5131134;28;20051;-52
2022/04/29 04:48:23;;;;;;;63.35;24.52;;;;;;;8.38;100.00;99139.38;5131043;28;20062;-52
2022/04/29 04:50:49;;;;;;;64.55;21.83;;;;;;;8.87;100.00;99158.97;5131215;28;20051;-50
2022/04/29 04:53:15;;;;;;;57.63;21.17;;;;;;;9.53;100.00;99184.72;5130863;28;20043;-50
2022/04/29 04:55:41;;;;;;;55.75;19.30;;;;;;;10.14;100.00;99225.13;5131372;28;20046;-52
2022/04/29 04:58:09;;;;;;;55.40;19.83;;;;;;;10.61;100.00;99269.94;5131045;28;20069;-52
2022/04/29 05:00:35;;;;;;;42.08;14.43;;;;;;;11.39;100.00;99319.13;5131212;28;20421;-51
2022/04/29 05:03:03;;;;;;;26.75;7.22;;;;;;;11.55;100.00;99418.66;5130960;28;20047;-50
2022/04/29 05:05:29;;;;;;;21.38;6.70;;;;;;;11.59;100.00;99468.13;5131140;28;20085;-49
2022/04/29 05:07:55;;;;;;;17.92;6.57;;;;;;;11.54;100.00;99472.78;5131037;28;20043;-53
2022/04/29 05:10:22;;;;;;;19.23;4.88;;;;;;;11.35;100.00;99486.50;5130879;28;20055;-52
2022/04/29 05:12:48;;;;;;;12.40;5.20;;;;;;;11.11;100.00;99500.53;5131133;28;20502;-49
2022/04/29 05:15:14;;;;;;;17.67;5.30;;;;;;;11.01;100.00;99488.19;5130807;28;20513;-49
2022/04/29 05:17:41;;;;;;;15.25;4.90;;;;;;;10.91;100.00;99483.25;5131253;28;20080;-49
2022/04/29 05:20:09;;;;;;;13.20;4.18;;;;;;;10.89;100.00;99504.75;5130511;28;20433;-50
2022/04/29 05:22:36;;;;;;;8.80;4.07;;;;;;;10.89;100.00;99500.06;5130559;28;20051;-49
2022/04/29 05:25:02;;;;;;;6.80;3.80;;;;;;;10.89;100.00;99507.50;5130551;28;20069;-50
2022/04/29 05:27:29;;;;;;;11.50;4.03;;;;;;;11.29;100.00;99507.16;5130949;28;20063;-49
2022/04/29 05:29:55;;;;;;;8.13;3.72;;;;;;;12.03;100.00;99529.03;5130394;27;20532;-48
2022/04/29 05:32:21;;;;;;;6.75;3.65;;;;;;;13.02;100.00;99566.72;5129405;28;20059;-50
2022/04/29 05:34:48;;;;;;;4.57;3.40;;;;;;;13.89;100.00;99617.88;5130393;28;20051;-49
2022/04/29 05:37:15;;;;;;;16.17;4.20;;;;;;;14.72;100.00;99652.63;5130356;28;20048;-53
2022/04/29 05:42:25;;;;;;;26.60;4.45;;;;;;;16.42;100.00;99701.00;5130213;28;20058;-57
2022/04/29 05:44:51;;;;;;;17.58;4.75;;;;;;;17.25;100.00;99701.91;5130219;28;20051;-48
2022/04/29 05:47:18;;;;;;;14.75;4.13;;;;;;;18.53;100.00;99713.84;5130131;28;20054;-47
2022/04/29 05:49:44;;;;;;;9.65;5.63;;;;;;;19.15;100.00;99734.47;5130246;28;20091;-53
2022/04/29 05:52:10;;;;;;;18.85;8.15;;;;;;;19.67;100.00;99738.03;5130256;28;20414;-53
2022/04/29 05:54:38;;;;;;;10.98;5.63;;;;;;;19.46;100.00;99740.97;5130584;28;20055;-53
2022/04/29 05:57:05;;;;;;;19.20;8.25;;;;;;;19.77;100.00;99743.91;5130253;28;20047;-55
2022/04/29 05:59:31;;;;;;;15.93;5.65;;;;;;;19.89;100.00;99757.25;5130412;28;20055;-52
2022/04/29 06:01:58;;;;;;;27.00;8.93;;;;;;;19.56;100.00;99753.19;5130303;28;20108;-53
2022/04/29 06:04:25;;;;;;;18.38;9.23;;;;;;;19.66;100.00;99739.22;5130230;28;20051;-57
2022/04/29 06:06:51;;;;;;;29.38;7.13;;;;;;;20.37;100.00;99748.75;5130351;28;20768;-51
2022/04/29 06:09:17;;;;;;;27.67;9.80;;;;;;;21.53;100.00;99757.84;5130071;28;20062;-53
2022/04/29 06:11:45;;;;;;;19.80;8.50;;;;;;;22.28;100.00;99772.41;5130172;28;20051;-54
2022/04/29 06:14:11;;;;;;;17.50;7.40;;;;;;;22.02;99.49;99776.88;5130019;28;20078;-52
2022/04/29 06:16:37;;;;;;;21.13;7.78;;;;;;;21.02;100.00;99759.81;5130085;28;20433;-56
2022/04/29 06:19:03;;;;;;;11.15;5.00;;;;;;;20.19;100.00;99767.66;5129770;28;20058;-55
2022/04/29 06:21:29;;;;;;;17.63;8.13;;;;;;;19.94;100.00;99749.25;5130041;28;20092;-53
2022/04/29 06:23:56;;;;;;;12.68;4.43;;;;;;;19.42;100.00;99763.25;5129472;28;20043;-50
2022/04/29 06:26:22;;;;;;;8.77;4.35;;;;;;;19.87;100.00;99771.59;5129766;28;20613;-47
2022/04/29 06:28:49;;;;;;;7.05;3.25;;;;;;;19.76;97.93;99776.50;5129575;28;20058;-51
2022/04/29 06:31:15;;;;;;;17.77;4.50;;;;;;;20.17;100.00;99775.66;5129378;28;20055;-51
2022/04/29 06:33:41;;;;;;;9.48;3.53;;;;;;;20.31;97.63;99769.91;5129610;28;20417;-51
2022/04/29 06:36:08;;;;;;;9.50;3.97;;;;;;;20.25;97.17;99779.13;5129525;28;20149;-48
2022/04/29 06:38:34;;;;;;;6.97;3.30;;;;;;;20.40;97.10;99773.00;5129758;28;20054;-48
2022/04/29 06:41:01;;;;;;;7.25;4.22;;;;;;;20.84;100.00;99767.66;5129215;28;20096;-49
2022/04/29 06:43:29;;;;;;;7.55;3.40;;;;;;;20.39;93.72;99782.56;5131924;27;20043;-50
2022/04/29 06:45:56;;;;;;;6.93;3.70;;;;;;;20.55;91.59;99784.75;5132731;28;20072;-48
2022/04/29 06:48:22;;;;;;;11.95;3.50;;;;;;;20.68;92.18;99785.78;5132772;28;20088;-48
2022/04/29 06:50:48;;;;;;;7.57;3.70;;;;;;;20.61;95.19;99777.53;5132637;28;20183;-53
2022/04/29 06:53:15;;;;;;;12.77;3.90;;;;;;;20.87;93.47;99773.19;5132856;28;20076;-50
2022/04/29 06:55:41;;;;;;;8.43;3.50;;;;;;;21.08;90.13;99786.00;5133140;28;20054;-50
2022/04/29 06:58:08;;;;;;;4.93;3.40;;;;;;;21.17;91.86;99784.72;5132665;28;20080;-50
2022/04/29 07:00:35;;;;;;;9.77;3.70;;;;;;;21.33;89.76;99793.22;5133216;28;20378;-53
2022/04/29 07:03:02;;;;;;;11.43;4.45;;;;;;;21.60;88.92;99787.63;5132642;28;20062;-52
2022/04/29 07:05:30;;;;;;;10.02;4.22;;;;;;;21.68;87.16;99786.25;5133078;28;20078;-52
2022/04/29 07:07:57;;;;;;;5.15;3.33;;;;;;;21.49;82.89;99798.97;5132563;28;20134;-53
2022/04/29 07:10:23;;;;;;;8.35;3.22;;;;;;;21.36;84.40;99804.34;5132705;28;20430;-53
2022/04/29 07:12:50;;;;;;;6.35;3.38;;;;;;;21.88;84.57;99800.28;5132647;28;20059;-52
2022/04/29 07:15:16;;;;;;;9.27;4.90;;;;;;;21.81;85.93;99792.81;5132841;28;20047;-50
2022/04/29 07:17:44;;;;;;;8.05;3.30;;;;;;;21.53;83.98;99798.91;5132443;28;20154;-51
2022/04/29 07:20:12;;;;;;;7.05;3.75;;;;;;;21.78;84.65;99792.88;5132803;28;20051;-52
2022/04/29 07:22:40;;;;;;;10.07;3.67;;;;;;;22.13;86.89;99785.06;5132265;28;20471;-50
2022/04/29 07:25:07;;;;;;;12.73;4.43;;;;;;;22.42;84.68;99793.69;5132435;28;20051;-53
2022/04/29 07:27:33;;;;;;;4.75;3.60;;;;;;;22.28;84.90;99801.13;5132396;28;20091;-52
2022/04/29 07:30:00;;;;;;;8.65;4.57;;;;;;;22.38;81.62;99799.34;5132228;28;20449;-49
2022/04/29 07:32:27;;;;;;;5.50;3.70;;;;;;;22.39;83.25;99800.94;5132446;28;20521;-51
2022/04/29 07:43:07;;;;;;;6.70;3.30;;;;;;;22.18;79.52;99798.56;5132367;28;20061;-51
2022/04/29 07:45:34;;;;;;;11.05;3.55;;;;;;;22.07;80.56;99796.72;5132518;28;20055;-52
2022/04/29 07:48:00;;;;;;;9.43;2.90;;;;;;;22.25;75.64;99801.19;5132334;28;20506;-50
2022/04/29 07:50:29;;;;;;;6.82;3.00;;;;;;;22.19;76.64;99809.31;5132277;28;20047;-48
2022/04/29 07:52:56;;;;;;;6.85;2.70;;;;;;;22.45;78.20;99801.97;5131863;28;20433;-51
2022/04/29 07:55:22;;;;;;;4.88;2.80;;;;;;;22.13;77.14;99805.41;5131340;27;20054;-50
2022/04/29 07:57:48;;;;;;;12.70;4.80;;;;;;;22.48;84.88;99792.75;5131578;28;20051;-48
2022/04/29 08:00:15;;;;;;;3.55;2.50;;;;;;;22.96;76.78;99793.38;5132349;28;20627;-49
2022/04/29 08:02:42;;;;;;;6.63;3.85;;;;;;;22.58;74.83;99790.94;5131920;28;20070;-48
2022/04/29 08:05:08;;;;;;;13.15;7.03;;;;;;;21.51;93.36;99765.06;5131783;28;20065;-49
2022/04/29 08:07:34;;;;;;;9.02;4.63;;;;;;;20.52;89.09;99768.88;5131711;28;20051;-52
2022/04/29 08:10:01;;;;;;;8.23;3.83;;;;;;;19.43;88.94;99775.19;5131735;28;20529;-53
2022/04/29 08:12:27;;;;;;;9.30;4.05;;;;;;;18.96;95.90;99763.59;5131576;28;20055;-49
2022/04/29 08:14:54;;;;;;;12.48;2.97;;;;;;;18.34;95.24;99763.09;5131525;28;20050;-50
2022/04/29 08:17:20;;;;;;;10.55;4.07;;;;;;;17.78;100.00;99751.00;5131528;28;20051;-49
2022/04/29 08:19:48;;;;;;;9.25;5.20;;;;;;;17.52;100.00;99743.88;5131548;28;20050;-50
2022/04/29 08:22:15;;;;;;;6.63;3.30;;;;;;;17.41;100.00;99732.78;5131546;28;20066;-51
2022/04/29 08:24:41;;;;;;;6.40;3.45;;;;;;;17.22;100.00;99730.41;5131137;28;20058;-49
2022/04/29 08:27:08;;;;;;;5.13;3.13;;;;;;;17.22;100.00;99737.94;5131208;28;20043;-50
2022/04/29 08:29:34;;;;;;;12.52;2.50;;;;;;;18.08;100.00;99731.09;5131181;28;20186;-51
2022/04/29 08:32:01;;;;;;;8.95;3.10;;;;;;;19.55;98.03;99732.94;5131197;28;20464;-49
2022/04/29 08:34:27;;;;;;;6.70;3.60;;;;;;;20.73;90.68;99733.59;5131265;28;20107;-49
2022/04/29 08:36:53;;;;;;;4.75;3.00;;;;;;;20.43;89.78;99747.09;5131118;28;20055;-52
2022/04/29 08:39:20;;;;;;;5.45;3.10;;;;;;;20.25;89.73;99738.16;5131352;28;20047;-50
2022/04/29 08:41:46;;;;;;;9.20;3.05;;;;;;;20.38;87.93;99741.19;5131167;28;20051;-50
2022/04/29 08:44:13;;;;;;;3.60;2.85;;;;;;;20.31;88.80;99741.28;5131305;28;20051;-51
2022/04/29 08:46:40;;;;;;;5.65;2.72;;;;;;;19.84;87.25;99735.47;5131052;28;20100;-50
2022/04/29 08:49:08;;;;;;;4.95;2.85;;;;;;;19.22;88.16;99739.97;5131272;28;20082;-49
2022/04/29 08:51:34;;;;;;;9.77;3.40;;;;;;;19.24;90.69;99729.25;5131047;28;20424;-50
2022/04/29 08:54:01;;;;;;;6.78;3.20;;;;;;;19.11;90.25;99731.72;5131209;28;20051;-51
2022/04/29 08:59:13;;;;;;;7.93;3.95;;;;;;;19.58;92.64;99723.78;5131012;28;20046;-54
2022/04/29 09:01:43;;;;;;;4.53;3.05;;;;;;;20.19;89.01;99723.13;5130703;28;20043;-51
2022/04/29 09:04:09;;;;;;;7.72;3.72;;;;;;;20.95;88.00;99726.47;5130993;28;20051;-50
2022/04/29 09:06:45;;;;;;;6.85;4.15;;;;;;;21.80;88.78;99724.25;5131132;27;20092;-49
2022/04/29 09:09:11;;;;;;;7.25;4.25;;;;;;;22.74;84.38;99726.72;5130986;28;20106;-53
2022/04/29 09:11:38;;;;;;;8.25;3.83;;;;;;;23.02;82.37;99725.31;5131093;28;20051;-50
2022/04/29 09:14:20;;;;;;;6.75;3.60;;;;;;;22.03;85.05;99717.06;5130666;28;20051;-54
2022/04/29 09:16:46;;;;;;;7.38;4.63;;;;;;;21.70;88.98;99719.66;5130785;28;20050;-50
2022/04/29 09:19:29;;;;;;;5.78;3.00;;;;;;;21.87;87.74;99712.19;5130528;28;20051;-53
2022/04/29 09:22:04;;;;;;;5.05;3.00;;;;;;;21.43;88.81;99716.97;5130315;28;20051;-50
2022/04/29 09:24:30;;;;;;;4.45;2.80;;;;;;;20.79;89.48;99729.09;5130640;28;20430;-49
2022/04/29 09:26:59;;;;;;;5.75;3.40;;;;;;;20.10;93.28;99720.84;5130465;28;20051;-51
2022/04/29 09:29:28;;;;;;;9.13;3.50;;;;;;;19.43;95.56;99714.00;5130544;28;20058;-49
2022/04/29 09:31:58;;;;;;;4.38;3.03;;;;;;;18.74;96.46;99718.50;5130428;28;20059;-49
2022/04/29 09:34:42;;;;;;;3.58;3.08;;;;;;;18.16;100.00;99708.84;5130515;28;20101;-49
2022/04/29 09:37:14;;;;;;;10.20;2.75;;;;;;;17.80;100.00;99693.16;5130331;28;20058;-50
2022/04/29 09:39:50;;;;;;;5.07;3.05;;;;;;;17.39;100.00;99682.53;5130722;28;20047;-50
2022/04/29 09:42:16;;;;;;;6.68;3.22;;;;;;;17.09;100.00;99676.59;5130385;28;20042;-49
2022/04/29 09:44:43;;;;;;;5.57;3.25;;;;;;;16.69;100.00;99662.72;5130279;28;20047;-52
2022/04/29 09:47:11;;;;;;;4.38;2.47;;;;;;;16.58;100.00;99647.28;5130602;28;20062;-53
2022/04/29 09:49:38;;;;;;;3.50;2.78;;;;;;;16.83;100.00;99636.28;5130122;28;20124;-49
2022/04/29 09:52:05;;;;;;;7.75;4.07;;;;;;;16.67;100.00;99625.53;5129933;28;20086;-53
2022/04/29 09:54:37;;;;;;;2.97;2.67;;;;;;;17.42;100.00;99629.03;5130110;28;20095;-49
2022/04/29 09:57:05;;;;;;;10.82;3.92;;;;;;;18.34;100.00;99654.06;5130161;28;20257;-50
2022/04/29 09:59:33;;;;;;;6.93;4.90;;;;;;;19.02;100.00;99645.25;5129912;28;20051;-48
2022/04/29 10:02:01;;;;;;;6.22;3.63;;;;;;;19.57;100.00;99644.34;5130174;28;20078;-50
2022/04/29 10:04:30;;;;;;;3.75;3.10;;;;;;;20.26;100.00;99672.94;5129984;28;20455;-48
2022/04/29 10:06:57;;;;;;;3.70;2.92;;;;;;;20.58;100.00;99672.50;5130198;28;20055;-48
2022/04/29 10:09:30;;;;;;;8.15;3.50;;;;;;;20.62;100.00;99675.22;5130238;28;20103;-49
2022/04/29 10:11:58;;;;;;;5.23;3.43;;;;;;;20.86;98.78;99671.28;5129885;28;20047;-51
2022/04/29 10:14:27;;;;;;;4.75;3.38;;;;;;;20.84;99.81;99667.34;5129910;28;20047;-49
2022/04/29 10:22:33;;;;;;;5.45;2.88;;;;;;;18.72;100.00;99677.25;5133137;28;20586;-49
2022/04/29 10:25:00;;;;;;;7.28;2.95;;;;;;;18.03;100.00;99673.25;5133089;28;20058;-49
2022/04/29 10:27:27;;;;;;;4.38;2.90;;;;;;;17.60;100.00;99662.28;5133330;28;20055;-51
2022/04/29 10:29:54;;;;;;;7.00;3.17;;;;;;;17.58;100.00;99655.53;5133168;28;20475;-49
2022/04/29 10:32:20;;;;;;;11.07;4.40;;;;;;;17.31;100.00;99664.31;5133304;28;20505;-51
2022/04/29 10:34:49;;;;;;;5.57;2.63;;;;;;;16.92;100.00;99667.09;5133308;28;20085;-51
2022/04/29 10:37:15;;;;;;;6.88;3.35;;;;;;;16.86;100.00;99636.28;5133372;28;20142;-49
2022/04/29 10:40:02;;;;;;;5.63;2.25;;;;;;;17.00;100.00;99651.28;5133112;28;20047;-49
2022/04/29 10:42:28;;;;;;;8.75;3.13;;;;;;;16.90;100.00;99650.91;5132952;28;20047;-50
2022/04/29 10:45:01;;;;;;;5.75;2.00;;;;;;;17.08;100.00;99655.63;5132691;28;20047;-51
2022/04/29 10:47:36;;;;;;;4.55;2.95;;;;;;;17.07;100.00;99657.63;5133021;28;20051;-49
2022/04/29 10:50:36;;;;;;;3.25;2.42;;;;;;;17.16;100.00;99646.16;5133000;28;20058;-52
2022/04/29 10:53:03;;;;;;;4.95;2.47;;;;;;;17.20;100.00;99655.25;5132581;28;20091;-50
2022/04/29 10:55:31;;;;;;;4.93;3.67;;;;;;;18.04;100.00;99643.53;5132753;28;20426;-49
2022/04/29 10:58:01;;;;;;;7.60;3.28;;;;;;;18.02;100.00;99648.69;5132576;28;20051;-50
2022/04/29 11:00:28;;;;;;;4.82;3.08;;;;;;;18.06;100.00;99635.56;5132571;28;20051;-52
2022/04/29 11:02:54;;;;;;;10.73;4.03;;;;;;;17.71;100.00;99633.72;5132516;28;20107;-50
2022/04/29 11:05:35;;;;;;;4.93;3.60;;;;;;;17.39;100.00;99615.19;5130697;28;20563;-50
2022/04/29 11:08:07;;;;;;;12.90;4.20;;;;;;;17.07;100.00;99606.97;5102868;28;20107;-51
2022/04/29 11:10:52;;;;;;;3.45;2.53;;;;;;;16.69;100.00;99603.78;5132720;28;20422;-52
2022/04/29 11:13:21;;;;;;;5.22;2.47;;;;;;;16.46;100.00;99580.06;5132555;28;20059;-52
2022/04/29 11:15:48;;;;;;;5.80;3.72;;;;;;;16.54;100.00;99569.00;5132515;28;20082;-50
2022/04/29 11:18:22;;;;;;;5.60;2.97;;;;;;;16.43;100.00;99577.31;5132447;28;20499;-49
2022/04/29 11:20:52;;;;;;;6.05;3.13;;;;;;;16.40;100.00;99564.25;5133187;28;20047;-50
2022/04/29 11:26:21;;;;;;;8.02;2.80;;;;;;;16.62;100.00;99578.88;5132329;28;20149;-51
2022/04/29 11:28:52;;;;;;;5.82;3.42;;;;;;;16.38;100.00;99589.53;5131115;27;20051;-50
2022/04/29 11:31:18;;;;;;;7.65;4.60;;;;;;;16.45;100.00;99570.16;5132429;28;20398;-49
2022/04/29 11:33:44;;;;;;;4.70;2.80;;;;;;;16.68;100.00;99574.53;5132759;28;20058;-58
2022/04/29 11:36:12;;;;;;;8.18;2.78;;;;;;;17.12;100.00;99578.84;5132417;28;20451;-57
2022/04/29 11:38:44;;;;;;;4.82;2.75;;;;;;;17.21;100.00;99598.63;5132809;28;20043;-53
2022/04/29 11:41:17;;;;;;;4.55;2.63;;;;;;;17.05;100.00;99598.25;5132094;28;20070;-53
2022/04/29 11:43:45;;;;;;;4.32;2.47;;;;;;;16.89;100.00;99588.41;5132400;28;20055;-57
2022/04/29 11:46:12;;;;;;;5.57;3.35;;;;;;;16.89;100.00;99590.34;5132298;28;20082;-55
2022/04/29 11:48:49;;;;;;;4.57;2.42;;;;;;;16.77;100.00;99593.53;5132262;28;20104;-56
2022/04/29 11:51:15;;;;;;;6.35;3.80;;;;;;;16.81;100.00;99572.97;5132394;28;20051;-55